createdAt,value
2022-11-24T00:00:25.772Z,20.56
2022-11-24T00:02:55.448Z,20.50
2022-11-24T00:05:25.749Z,20.56
2022-11-24T00:07:55.337Z,20.40
2022-11-24T00:10:25.413Z,20.33
2022-11-24T00:12:55.754Z,20.26
2022-11-24T00:15:26.071Z,20.20
2022-11-24T00:17:56.373Z,20.24
2022-11-24T00:20:26.205Z,20.22
2022-11-24T00:22:57.160Z,20.15
2022-11-24T00:25:27.563Z,20.15
2022-11-24T00:27:57.852Z,20.19
2022-11-24T00:30:27.806Z,20.08
2022-11-24T00:32:58.012Z,19.99
2022-11-24T00:35:28.005Z,19.96
2022-11-24T00:37:58.137Z,20.02
2022-11-24T00:40:33.617Z,19.93
2022-11-24T00:43:05.334Z,19.92
2022-11-24T00:45:35.537Z,19.90
2022-11-24T00:48:06.050Z,19.86
2022-11-24T00:50:37.178Z,19.81
2022-11-24T00:53:07.441Z,19.75
2022-11-24T00:55:37.354Z,19.74
2022-11-24T00:58:07.628Z,19.75
2022-11-24T01:00:37.910Z,19.68
2022-11-24T01:03:07.735Z,19.82
2022-11-24T01:05:41.372Z,19.69
2022-11-24T01:08:12.773Z,19.58
2022-11-24T01:10:43.174Z,19.51
2022-11-24T01:13:14.532Z,19.57
2022-11-24T01:15:45.178Z,19.66
2022-11-24T01:18:15.608Z,19.68
2022-11-24T01:20:45.859Z,19.79
2022-11-24T01:23:15.648Z,19.71
2022-11-24T01:25:45.714Z,19.47
2022-11-24T01:28:16.269Z,19.48
2022-11-24T01:30:48.398Z,19.45
2022-11-24T01:33:18.709Z,19.44
2022-11-24T01:35:48.879Z,19.44
2022-11-24T01:38:19.181Z,19.42
2022-11-24T01:40:49.640Z,19.42
2022-11-24T01:43:22.785Z,19.41
2022-11-24T01:45:53.093Z,19.36
2022-11-24T01:48:29.253Z,19.38
2022-11-24T01:51:12.173Z,19.36
2022-11-24T01:53:45.978Z,19.47
2022-11-24T01:56:16.922Z,19.54
2022-11-24T01:58:48.365Z,19.50
2022-11-24T02:01:19.071Z,19.52
2022-11-24T02:03:50.535Z,19.51
2022-11-24T02:06:29.097Z,19.41
2022-11-24T02:09:25.019Z,19.44
2022-11-24T02:11:57.224Z,19.44
2022-11-24T02:14:28.831Z,19.47
2022-11-24T02:16:59.186Z,19.47
2022-11-24T02:19:41.322Z,19.48
2022-11-24T02:22:26.405Z,19.38
2022-11-24T02:25:07.986Z,19.35
2022-11-24T02:27:38.545Z,19.34
2022-11-24T02:30:09.215Z,19.41
2022-11-24T02:32:43.700Z,19.39
2022-11-24T02:35:15.672Z,19.48
2022-11-24T02:37:46.345Z,19.44
2022-11-24T02:40:27.249Z,19.30
2022-11-24T02:43:02.043Z,19.15
2022-11-24T02:45:33.134Z,19.25
2022-11-24T02:48:03.408Z,19.31
2022-11-24T02:50:33.344Z,19.31
2022-11-24T02:53:03.542Z,19.21
2022-11-24T02:55:34.192Z,19.13
2022-11-24T02:58:04.500Z,19.03
2022-11-24T03:00:34.954Z,18.86
2022-11-24T03:03:06.123Z,18.82
2022-11-24T03:05:36.455Z,18.76
2022-11-24T03:08:06.503Z,18.70
2022-11-24T03:10:36.649Z,18.73
2022-11-24T03:13:07.017Z,18.76
2022-11-24T03:15:38.115Z,18.87
2022-11-24T03:18:08.657Z,18.93
2022-11-24T03:20:39.120Z,18.97
2022-11-24T03:23:09.472Z,18.99
2022-11-24T03:25:39.195Z,19.03
2022-11-24T03:28:09.474Z,19.00
2022-11-24T03:30:39.218Z,19.06
2022-11-24T03:33:09.647Z,18.82
2022-11-24T03:35:39.975Z,18.82
2022-11-24T03:38:10.577Z,18.87
2022-11-24T03:40:40.859Z,18.92
2022-11-24T03:43:10.615Z,18.94
2022-11-24T03:45:48.299Z,18.99
2022-11-24T03:48:22.404Z,18.96
2022-11-24T03:51:04.434Z,18.92
2022-11-24T03:53:35.644Z,18.90
2022-11-24T03:56:06.240Z,18.74
2022-11-24T03:58:36.823Z,18.77
2022-11-24T04:01:07.215Z,18.79
2022-11-24T04:03:37.017Z,18.79
2022-11-24T04:06:07.068Z,18.80
2022-11-24T04:08:37.015Z,18.80
2022-11-24T04:11:08.292Z,18.80
2022-11-24T04:13:38.635Z,18.76
2022-11-24T04:16:08.624Z,18.74
2022-11-24T04:18:38.589Z,18.79
2022-11-24T04:21:08.735Z,18.79
2022-11-24T04:23:38.690Z,18.76
2022-11-24T04:26:09.261Z,18.77
2022-11-24T04:28:39.766Z,18.74
2022-11-24T04:31:10.152Z,18.66
2022-11-24T04:33:40.436Z,18.64
2022-11-24T04:36:10.652Z,18.57
2022-11-24T04:39:24.689Z,18.59
2022-11-24T04:41:31.356Z,18.52
2022-11-24T04:44:01.347Z,18.51
2022-11-24T04:46:31.611Z,18.55
2022-11-24T04:49:01.908Z,18.57
2022-11-24T04:51:32.126Z,18.52
2022-11-24T04:54:02.354Z,18.52
2022-11-24T04:56:32.587Z,18.57
2022-11-24T04:59:08.023Z,18.53
2022-11-24T05:01:38.801Z,18.57
2022-11-24T05:04:08.594Z,18.55
2022-11-24T05:06:38.650Z,18.49
2022-11-24T05:09:09.208Z,18.46
2022-11-24T05:11:39.359Z,18.43
2022-11-24T05:14:09.666Z,18.39
2022-11-24T05:16:39.361Z,18.38
2022-11-24T05:19:09.749Z,18.35
2022-11-24T05:21:40.087Z,18.36
2022-11-24T05:24:10.028Z,18.33
2022-11-24T05:26:40.230Z,18.31
2022-11-24T05:29:09.987Z,18.22
2022-11-24T05:31:40.230Z,18.06
2022-11-24T05:34:10.959Z,18.06
2022-11-24T05:36:56.291Z,18.06
2022-11-24T05:39:26.782Z,18.04
2022-11-24T05:41:57.067Z,18.02
2022-11-24T05:44:27.371Z,17.95
2022-11-24T05:46:57.654Z,17.81
2022-11-24T05:49:27.501Z,17.70
2022-11-24T05:51:57.298Z,17.55
2022-11-24T05:54:27.533Z,17.53
2022-11-24T05:56:58.166Z,17.63
2022-11-24T05:59:28.478Z,17.71
2022-11-24T06:01:58.847Z,17.75
2022-11-24T06:04:29.285Z,17.78
2022-11-24T06:06:59.671Z,17.78
2022-11-24T06:09:30.155Z,17.80
2022-11-24T06:12:00.378Z,17.82
2022-11-24T06:14:30.508Z,17.70
2022-11-24T06:17:01.105Z,17.49
2022-11-24T06:19:32.116Z,17.46
2022-11-24T06:22:02.453Z,17.47
2022-11-24T06:24:32.539Z,17.61
2022-11-24T06:27:02.891Z,17.78
2022-11-24T06:29:33.138Z,17.84
2022-11-24T06:32:03.232Z,17.82
2022-11-24T06:34:33.378Z,17.87
2022-11-24T06:37:04.185Z,17.84
2022-11-24T06:39:34.736Z,17.82
2022-11-24T06:42:05.348Z,17.88
2022-11-24T06:44:35.912Z,17.85
2022-11-24T06:47:06.339Z,17.90
2022-11-24T06:49:36.636Z,17.87
2022-11-24T06:52:06.411Z,17.90
2022-11-24T06:54:36.680Z,17.88
2022-11-24T06:57:07.152Z,17.88
2022-11-24T06:59:37.405Z,17.91
2022-11-24T07:02:08.052Z,17.90
2022-11-24T07:04:38.312Z,17.90
2022-11-24T07:07:08.312Z,17.90
2022-11-24T07:09:38.594Z,17.81
2022-11-24T07:12:09.047Z,17.81
2022-11-24T07:14:39.301Z,17.81
2022-11-24T07:17:09.532Z,17.82
2022-11-24T07:19:39.811Z,17.77
2022-11-24T07:22:10.201Z,17.80
2022-11-24T07:24:40.054Z,17.84
2022-11-24T07:27:10.121Z,17.80
2022-11-24T07:29:40.361Z,17.77
2022-11-24T07:32:10.657Z,17.64
2022-11-24T07:34:40.406Z,17.59
2022-11-24T07:37:10.440Z,17.51
2022-11-24T07:39:40.220Z,17.54
2022-11-24T07:42:11.986Z,17.60
2022-11-24T07:44:42.197Z,17.57
2022-11-24T07:47:12.393Z,17.63
2022-11-24T07:49:42.618Z,17.61
2022-11-24T07:52:12.951Z,17.55
2022-11-24T07:54:42.596Z,17.53
2022-11-24T07:57:12.510Z,17.44
2022-11-24T07:59:42.821Z,17.39
2022-11-24T08:02:14.847Z,17.24
2022-11-24T08:04:44.989Z,17.12
2022-11-24T08:07:15.234Z,17.15
2022-11-24T08:09:45.455Z,17.22
2022-11-24T08:12:15.875Z,17.16
2022-11-24T08:14:46.138Z,16.96
2022-11-24T08:17:16.440Z,16.78
2022-11-24T08:19:47.093Z,16.79
2022-11-24T08:22:17.412Z,17.00
2022-11-24T08:24:49.815Z,17.20
2022-11-24T08:27:21.062Z,17.23
2022-11-24T08:29:51.330Z,17.31
2022-11-24T08:32:22.523Z,17.39
2022-11-24T08:34:59.526Z,17.40
2022-11-24T08:37:34.722Z,17.49
2022-11-24T08:40:05.065Z,17.46
2022-11-24T08:42:35.468Z,17.46
2022-11-24T08:45:20.030Z,17.50
2022-11-24T08:47:59.083Z,17.57
2022-11-24T08:50:29.335Z,17.63
2022-11-24T08:52:59.603Z,17.59
2022-11-24T08:55:29.882Z,17.53
2022-11-24T08:58:00.624Z,17.55
2022-11-24T09:00:30.737Z,17.60
2022-11-24T09:03:01.099Z,17.55
2022-11-24T09:08:22.052Z,17.46
2022-11-24T09:10:52.809Z,17.67
2022-11-24T09:13:23.035Z,17.84
2022-11-24T09:15:53.243Z,17.98
2022-11-24T09:18:26.333Z,18.11
2022-11-24T09:21:15.224Z,18.21
2022-11-24T09:23:46.687Z,18.25
2022-11-24T09:26:18.345Z,18.31
2022-11-24T09:28:49.370Z,18.38
2022-11-24T09:31:20.393Z,18.46
2022-11-24T09:33:50.734Z,18.53
2022-11-24T09:36:20.916Z,18.63
2022-11-24T09:38:51.246Z,18.66
2022-11-24T09:41:45.747Z,18.76
2022-11-24T09:44:38.804Z,18.80
2022-11-24T09:47:40.994Z,18.90
2022-11-24T09:50:45.900Z,18.97
2022-11-24T09:53:18.889Z,19.04
2022-11-24T09:55:55.204Z,19.10
2022-11-24T09:58:47.189Z,19.17
2022-11-24T10:01:26.149Z,19.23
2022-11-24T10:04:01.114Z,19.25
2022-11-24T10:06:46.360Z,19.25
2022-11-24T10:09:37.864Z,19.31
2022-11-24T10:12:32.857Z,19.36
2022-11-24T10:15:23.659Z,19.45
2022-11-24T10:18:33.990Z,19.54
2022-11-24T10:21:25.408Z,19.62
2022-11-24T10:24:01.141Z,19.74
2022-11-24T10:26:39.221Z,19.78
2022-11-24T10:29:17.826Z,19.87
2022-11-24T10:31:50.215Z,20.02
2022-11-24T10:34:43.920Z,20.03
2022-11-24T10:37:18.159Z,19.89
2022-11-24T10:40:00.240Z,20.02
2022-11-24T10:42:38.208Z,20.15
2022-11-24T10:45:16.776Z,20.23
2022-11-24T10:47:48.108Z,20.23
2022-11-24T10:50:21.264Z,20.24
2022-11-24T10:53:24.112Z,20.40
2022-11-24T10:56:00.287Z,20.51
2022-11-24T10:58:41.307Z,20.53
2022-11-24T11:01:17.469Z,20.56
2022-11-24T11:03:57.433Z,20.65
2022-11-24T11:06:32.957Z,20.58
2022-11-24T11:09:09.214Z,20.65
2022-11-24T11:11:41.225Z,20.75
2022-11-24T11:14:14.892Z,20.68
2022-11-24T11:16:53.078Z,20.95
2022-11-24T11:19:48.831Z,20.97
2022-11-24T11:22:38.677Z,21.06
2022-11-24T11:25:14.794Z,21.04
2022-11-24T11:27:45.209Z,21.12
2022-11-24T11:36:19.903Z,21.65
2022-11-24T11:38:50.210Z,21.57
2022-11-24T11:41:39.957Z,21.96
2022-11-24T11:44:28.090Z,22.14
2022-11-24T11:47:00.944Z,22.37
2022-11-24T11:49:31.591Z,22.45
2022-11-24T11:52:01.757Z,22.65
2022-11-24T11:55:15.953Z,22.58
2022-11-24T11:58:12.548Z,22.76
2022-11-24T12:00:50.213Z,23.27
2022-11-24T12:03:32.790Z,23.43
2022-11-24T12:06:17.991Z,23.39
2022-11-24T12:09:19.862Z,23.24
2022-11-24T12:11:56.868Z,23.33
2022-11-24T12:14:43.569Z,23.57
2022-11-24T12:17:55.170Z,23.53
2022-11-24T12:20:58.144Z,23.63
2022-11-24T12:23:52.279Z,23.88
2022-11-24T12:26:40.529Z,23.73
2022-11-24T12:29:32.401Z,23.66
2022-11-24T12:32:20.505Z,23.36
2022-11-24T12:35:19.719Z,23.91
2022-11-24T12:37:55.992Z,23.81
2022-11-24T12:41:18.107Z,23.50
2022-11-24T12:43:55.001Z,23.94
2022-11-24T12:46:57.311Z,24.45
2022-11-24T12:49:58.222Z,24.52
2022-11-24T12:52:36.162Z,24.77
2022-11-24T12:55:07.230Z,25.09
2022-11-24T12:57:56.138Z,25.27
2022-11-24T13:00:36.890Z,25.60
2022-11-24T13:03:12.932Z,25.14
2022-11-24T13:06:23.354Z,24.66
2022-11-24T13:08:54.094Z,24.51
2022-11-24T13:11:24.360Z,24.14
2022-11-24T13:14:00.967Z,23.98
2022-11-24T13:16:48.597Z,23.98
2022-11-24T13:19:35.160Z,24.86
2022-11-24T13:22:12.191Z,24.49
2022-11-24T13:24:43.996Z,24.08
2022-11-24T13:27:17.153Z,23.93
2022-11-24T13:29:49.267Z,24.19
2022-11-24T13:32:22.616Z,25.10
2022-11-24T13:34:55.990Z,25.58
2022-11-24T13:37:35.331Z,25.92
2022-11-24T13:40:15.533Z,25.44
2022-11-24T13:42:58.775Z,24.69
2022-11-24T13:45:52.355Z,25.41
2022-11-24T13:48:22.951Z,25.75
2022-11-24T13:50:54.416Z,26.06
2022-11-24T13:53:27.396Z,26.42
2022-11-24T13:56:31.406Z,26.37
2022-11-24T13:59:18.491Z,26.51
2022-11-24T14:01:59.106Z,26.76
2022-11-24T14:04:31.773Z,27.05
2022-11-24T14:07:14.729Z,26.91
2022-11-24T14:09:51.406Z,26.76
2022-11-24T14:12:28.059Z,27.12
2022-11-24T14:15:27.282Z,27.38
2022-11-24T14:17:57.568Z,27.38
2022-11-24T14:20:29.676Z,27.31
2022-11-24T14:23:01.973Z,27.58
2022-11-24T14:25:33.983Z,27.63
2022-11-24T14:28:04.494Z,26.32
2022-11-24T14:30:34.791Z,26.05
2022-11-24T14:33:06.052Z,25.34
2022-11-24T14:35:37.999Z,26.35
2022-11-24T14:38:10.785Z,27.02
2022-11-24T14:40:51.646Z,27.58
2022-11-24T14:43:34.877Z,27.79
2022-11-24T14:46:10.458Z,27.66
2022-11-24T14:48:54.524Z,27.56
2022-11-24T14:51:29.685Z,27.35
2022-11-24T14:54:16.819Z,27.46
2022-11-24T14:57:05.524Z,27.67
2022-11-24T14:59:39.677Z,28.20
2022-11-24T15:02:45.960Z,28.30
2022-11-24T15:05:17.605Z,28.27
2022-11-24T15:07:49.983Z,28.36
2022-11-24T15:10:29.080Z,28.36
2022-11-24T15:13:05.837Z,28.02
2022-11-24T15:15:38.689Z,28.27
2022-11-24T15:18:42.083Z,28.41
2022-11-24T15:21:18.864Z,28.51
2022-11-24T15:24:19.575Z,28.48
2022-11-24T15:26:49.913Z,28.20
2022-11-24T15:29:20.136Z,28.16
2022-11-24T15:31:52.891Z,28.23
2022-11-24T15:34:23.380Z,28.37
2022-11-24T15:36:53.711Z,28.21
2022-11-24T15:39:23.886Z,28.57
2022-11-24T15:41:54.122Z,28.67
2022-11-24T15:44:23.677Z,28.81
2022-11-24T15:46:53.639Z,28.64
2022-11-24T15:49:23.811Z,28.65
2022-11-24T15:51:53.879Z,28.82
2022-11-24T15:54:25.944Z,28.88
2022-11-24T15:56:56.213Z,28.92
2022-11-24T15:59:25.810Z,29.13
2022-11-24T16:01:55.772Z,28.88
2022-11-24T16:04:25.677Z,29.05
2022-11-24T16:06:55.573Z,29.05
2022-11-24T16:09:25.673Z,28.91
2022-11-24T16:12:06.267Z,28.27
2022-11-24T16:14:37.894Z,28.31
2022-11-24T16:17:08.441Z,28.58
2022-11-24T16:19:41.774Z,28.85
2022-11-24T16:22:12.458Z,28.84
2022-11-24T16:24:42.777Z,28.58
2022-11-24T16:27:12.926Z,28.30
2022-11-24T16:29:43.334Z,28.72
2022-11-24T16:32:13.428Z,29.06
2022-11-24T16:34:43.839Z,29.22
2022-11-24T16:37:14.118Z,29.23
2022-11-24T16:39:49.682Z,29.25
2022-11-24T16:42:20.317Z,28.95
2022-11-24T16:44:50.941Z,29.15
2022-11-24T16:47:21.620Z,29.12
2022-11-24T16:49:52.013Z,29.03
2022-11-24T16:52:22.213Z,29.16
2022-11-24T16:54:52.604Z,29.11
2022-11-24T16:57:22.895Z,29.27
2022-11-24T16:59:53.176Z,29.42
2022-11-24T17:02:23.628Z,29.32
2022-11-24T17:04:54.563Z,29.56
2022-11-24T17:07:24.784Z,29.30
2022-11-24T17:09:55.357Z,29.20
2022-11-24T17:12:25.668Z,29.23
2022-11-24T17:15:24.344Z,29.32
2022-11-24T17:18:16.162Z,28.84
2022-11-24T17:20:38.086Z,29.05
2022-11-24T17:23:08.518Z,29.32
2022-11-24T17:25:38.799Z,29.27
2022-11-24T17:28:09.109Z,28.48
2022-11-24T17:30:39.788Z,28.95
2022-11-24T17:33:10.007Z,29.20
2022-11-24T17:35:40.433Z,28.87
2022-11-24T17:38:10.608Z,29.01
2022-11-24T17:40:41.027Z,28.87
2022-11-24T17:43:11.293Z,28.84
2022-11-24T17:45:41.159Z,28.90
2022-11-24T17:48:11.403Z,28.87
2022-11-24T17:50:41.806Z,28.75
2022-11-24T17:53:12.489Z,29.02
2022-11-24T17:55:43.466Z,29.05
2022-11-24T17:58:13.810Z,28.75
2022-11-24T18:00:44.175Z,28.87
2022-11-24T18:03:14.474Z,28.99
2022-11-24T18:05:45.214Z,28.98
2022-11-24T18:08:15.678Z,29.11
2022-11-24T18:10:45.978Z,28.96
2022-11-24T18:13:40.693Z,28.64
2022-11-24T18:16:10.119Z,28.94
2022-11-24T18:18:40.701Z,28.85
2022-11-24T18:21:19.037Z,28.82
2022-11-24T18:23:49.369Z,28.84
2022-11-24T18:26:19.926Z,28.91
2022-11-24T18:28:50.519Z,28.85
2022-11-24T18:31:21.963Z,28.68
2022-11-24T18:33:52.233Z,28.96
2022-11-24T18:36:29.718Z,28.94
2022-11-24T18:39:09.015Z,28.85
2022-11-24T18:41:41.027Z,28.95
2022-11-24T18:44:11.244Z,28.99
2022-11-24T18:46:41.536Z,28.87
2022-11-24T18:49:11.944Z,29.02
2022-11-24T18:51:42.518Z,28.98
2022-11-24T18:54:12.650Z,28.69
2022-11-24T18:56:43.033Z,28.67
2022-11-24T18:59:13.303Z,28.51
2022-11-24T19:01:43.020Z,28.68
2022-11-24T19:04:14.161Z,28.57
2022-11-24T19:06:45.238Z,28.61
2022-11-24T19:09:18.747Z,28.55
2022-11-24T19:11:49.357Z,28.36
2022-11-24T19:14:21.081Z,28.31
2022-11-24T19:16:51.503Z,28.47
2022-11-24T19:19:21.933Z,28.60
2022-11-24T19:21:52.236Z,28.60
2022-11-24T19:24:22.711Z,28.60
2022-11-24T19:26:53.112Z,28.50
2022-11-24T19:29:24.026Z,28.39
2022-11-24T19:31:56.830Z,28.33
2022-11-24T19:34:27.252Z,28.17
2022-11-24T19:36:57.636Z,28.21
2022-11-24T19:39:27.981Z,28.18
2022-11-24T19:41:58.326Z,28.00
2022-11-24T19:44:28.491Z,27.86
2022-11-24T19:46:58.843Z,27.90
2022-11-24T19:49:29.153Z,27.85
2022-11-24T19:51:59.350Z,27.92
2022-11-24T19:54:29.721Z,27.92
2022-11-24T19:57:00.080Z,27.86
2022-11-24T19:59:30.354Z,27.79
2022-11-24T20:02:01.327Z,27.66
2022-11-24T20:04:33.859Z,27.51
2022-11-24T20:07:04.754Z,27.45
2022-11-24T20:09:35.498Z,27.46
2022-11-24T20:12:06.185Z,27.43
2022-11-24T20:14:36.665Z,27.42
2022-11-24T20:17:08.076Z,27.38
2022-11-24T20:19:38.357Z,27.27
2022-11-24T20:22:08.716Z,27.08
2022-11-24T20:24:39.126Z,27.01
2022-11-24T20:27:09.559Z,27.07
2022-11-24T20:29:46.460Z,26.88
2022-11-24T20:32:21.001Z,26.88
2022-11-24T20:34:51.562Z,26.77
2022-11-24T20:37:22.230Z,26.84
2022-11-24T20:39:52.759Z,26.80
2022-11-24T20:42:23.187Z,26.87
2022-11-24T20:44:53.621Z,26.44
2022-11-24T20:47:23.823Z,26.39
2022-11-24T20:49:54.001Z,26.39
2022-11-24T20:52:24.385Z,26.26
2022-11-24T20:54:54.626Z,26.09
2022-11-24T20:57:24.886Z,25.92
2022-11-24T20:59:55.370Z,25.88
2022-11-24T21:02:25.180Z,25.86
2022-11-24T21:04:55.377Z,25.77
2022-11-24T21:07:26.044Z,25.75
2022-11-24T21:09:56.361Z,25.62
2022-11-24T21:12:26.603Z,25.50
2022-11-24T21:14:56.855Z,25.54
2022-11-24T21:17:27.244Z,25.48
2022-11-24T21:20:00.842Z,25.33
2022-11-24T21:22:31.404Z,25.19
2022-11-24T21:25:01.657Z,25.11
2022-11-24T21:27:32.130Z,25.06
2022-11-24T21:30:02.373Z,24.90
2022-11-24T21:32:33.572Z,24.76
2022-11-24T21:35:04.093Z,24.59
2022-11-24T21:37:34.316Z,24.58
2022-11-24T21:40:04.676Z,24.48
2022-11-24T21:42:34.905Z,24.39
2022-11-24T21:45:05.249Z,24.33
2022-11-24T21:47:35.864Z,24.21
2022-11-24T21:50:07.894Z,24.05
2022-11-24T21:52:38.302Z,23.97
2022-11-24T21:55:08.968Z,23.93
2022-11-24T21:57:39.920Z,23.87
2022-11-24T22:00:10.436Z,23.61
2022-11-24T22:02:40.811Z,23.47
2022-11-24T22:05:11.523Z,23.40
2022-11-24T22:07:42.155Z,23.29
2022-11-24T22:10:12.755Z,23.16
2022-11-24T22:12:42.999Z,23.13
2022-11-24T22:15:13.249Z,23.03
2022-11-24T22:17:43.580Z,22.94
2022-11-24T22:20:13.202Z,22.91
2022-11-24T22:22:43.108Z,22.79
2022-11-24T22:25:13.378Z,22.69
2022-11-24T22:27:44.134Z,22.64
2022-11-24T22:30:14.645Z,22.61
2022-11-24T22:32:44.699Z,22.54
2022-11-24T22:35:14.719Z,22.47
2022-11-24T22:37:44.763Z,22.40
2022-11-24T22:40:14.961Z,22.31
2022-11-24T22:42:45.181Z,22.30
2022-11-24T22:45:14.937Z,22.30
2022-11-24T22:47:45.073Z,22.21
2022-11-24T22:50:15.276Z,22.11
2022-11-24T22:52:45.433Z,22.01
2022-11-24T22:55:15.267Z,22.00
2022-11-24T22:57:48.251Z,21.94
2022-11-24T23:00:20.013Z,21.86
2022-11-24T23:02:50.714Z,21.79
2022-11-24T23:05:21.089Z,21.76
2022-11-24T23:07:51.499Z,21.67
2022-11-24T23:10:22.323Z,21.63
2022-11-24T23:12:52.738Z,21.60
2022-11-24T23:15:23.006Z,21.52
2022-11-24T23:17:53.478Z,21.47
2022-11-24T23:20:24.037Z,21.47
2022-11-24T23:22:56.552Z,21.47
2022-11-24T23:25:26.868Z,21.39
2022-11-24T23:27:57.264Z,21.34
2022-11-24T23:30:27.584Z,21.34
2022-11-24T23:32:57.950Z,21.25
2022-11-24T23:35:28.386Z,21.21
2022-11-24T23:38:07.455Z,21.14
2022-11-24T23:40:37.992Z,20.98
2022-11-24T23:43:07.722Z,20.99
2022-11-24T23:45:37.685Z,20.92
2022-11-24T23:48:09.770Z,20.84
2022-11-24T23:50:40.158Z,20.81
2022-11-24T23:53:10.480Z,20.87
2022-11-24T23:55:40.764Z,20.85
2022-11-24T23:58:10.507Z,20.77
